createdAt,value
2022-12-13T00:00:15.249Z,989.32
2022-12-13T00:01:15.212Z,989.33
2022-12-13T00:02:15.238Z,989.33
2022-12-13T00:03:15.152Z,989.33
2022-12-13T00:04:15.220Z,989.35
2022-12-13T00:05:15.541Z,989.35
2022-12-13T00:06:15.068Z,989.34
2022-12-13T00:07:15.033Z,989.32
2022-12-13T00:08:15.030Z,989.35
2022-12-13T00:09:14.972Z,989.36
2022-12-13T00:10:14.951Z,989.34
2022-12-13T00:11:14.903Z,989.28
2022-12-13T00:12:14.878Z,989.26
2022-12-13T00:13:14.847Z,989.26
2022-12-13T00:14:14.841Z,989.28
2022-12-13T00:15:14.922Z,989.25
2022-12-13T00:16:14.829Z,989.27
2022-12-13T00:17:14.721Z,989.27
2022-12-13T00:18:14.694Z,989.27
2022-12-13T00:19:14.659Z,989.26
2022-12-13T00:20:14.980Z,989.27
2022-12-13T00:21:14.601Z,989.23
2022-12-13T00:22:14.575Z,989.25
2022-12-13T00:23:14.538Z,989.26
2022-12-13T00:24:14.510Z,989.26
2022-12-13T00:25:14.772Z,989.24
2022-12-13T00:26:14.448Z,989.20
2022-12-13T00:27:14.412Z,989.22
2022-12-13T00:28:14.385Z,989.18
2022-12-13T00:29:14.350Z,989.19
2022-12-13T00:30:14.334Z,989.16
2022-12-13T00:31:53.550Z,989.18
2022-12-13T00:32:14.276Z,989.16
2022-12-13T00:33:14.228Z,989.17
2022-12-13T00:34:14.201Z,989.17
2022-12-13T00:35:14.563Z,989.13
2022-12-13T00:36:14.138Z,989.10
2022-12-13T00:37:14.117Z,989.09
2022-12-13T00:38:14.076Z,989.08
2022-12-13T00:39:14.049Z,989.05
2022-12-13T00:40:14.017Z,989.09
2022-12-13T00:41:13.974Z,989.10
2022-12-13T00:42:13.950Z,989.09
2022-12-13T00:43:13.918Z,989.11
2022-12-13T00:44:13.887Z,989.10
2022-12-13T00:45:14.144Z,989.12
2022-12-13T00:46:13.859Z,989.11
2022-12-13T00:47:13.812Z,989.11
2022-12-13T00:48:13.764Z,989.08
2022-12-13T00:49:13.732Z,989.09
2022-12-13T00:50:13.733Z,989.03
2022-12-13T00:51:13.670Z,989.04
2022-12-13T00:52:13.637Z,989.02
2022-12-13T00:53:13.612Z,988.99
2022-12-13T00:54:13.579Z,989.00
2022-12-13T00:55:13.862Z,988.96
2022-12-13T00:56:13.531Z,989.01
2022-12-13T00:57:13.502Z,988.95
2022-12-13T00:58:13.454Z,988.97
2022-12-13T00:59:13.430Z,988.97
2022-12-13T01:00:13.398Z,988.97
2022-12-13T01:01:13.474Z,988.91
2022-12-13T01:02:13.332Z,988.91
2022-12-13T01:03:13.354Z,988.92
2022-12-13T01:04:13.274Z,988.92
2022-12-13T01:05:13.530Z,988.90
2022-12-13T01:06:15.397Z,988.90
2022-12-13T01:07:13.179Z,988.89
2022-12-13T01:08:13.211Z,988.92
2022-12-13T01:09:13.119Z,988.90
2022-12-13T01:10:13.078Z,988.89
2022-12-13T01:11:13.080Z,988.89
2022-12-13T01:12:13.020Z,988.86
2022-12-13T01:13:12.991Z,988.90
2022-12-13T01:14:12.960Z,988.89
2022-12-13T01:15:13.286Z,988.89
2022-12-13T01:16:12.958Z,988.90
2022-12-13T01:17:12.976Z,988.93
2022-12-13T01:18:12.837Z,988.94
2022-12-13T01:19:12.803Z,988.88
2022-12-13T01:20:12.775Z,988.90
2022-12-13T01:21:12.749Z,988.94
2022-12-13T01:22:12.709Z,988.90
2022-12-13T01:23:12.686Z,988.95
2022-12-13T01:24:12.648Z,988.92
2022-12-13T01:25:13.063Z,988.96
2022-12-13T01:26:12.581Z,988.93
2022-12-13T01:27:12.554Z,988.92
2022-12-13T01:28:12.522Z,988.93
2022-12-13T01:29:12.498Z,988.92
2022-12-13T01:30:12.455Z,988.90
2022-12-13T01:31:12.452Z,988.92
2022-12-13T01:32:12.425Z,988.93
2022-12-13T01:33:14.576Z,988.90
2022-12-13T01:34:12.345Z,988.88
2022-12-13T01:35:12.688Z,988.91
2022-12-13T01:36:12.270Z,988.87
2022-12-13T01:37:12.248Z,988.86
2022-12-13T01:38:15.869Z,988.88
2022-12-13T01:39:15.200Z,988.88
2022-12-13T01:40:15.942Z,988.93
2022-12-13T01:41:17.353Z,988.92
2022-12-13T01:42:12.089Z,988.87
2022-12-13T01:43:14.486Z,988.86
2022-12-13T01:44:12.025Z,988.88
2022-12-13T01:45:12.258Z,988.86
2022-12-13T01:46:12.068Z,988.81
2022-12-13T01:47:11.934Z,988.85
2022-12-13T01:48:11.895Z,988.83
2022-12-13T01:49:19.801Z,988.84
2022-12-13T01:50:11.842Z,988.83
2022-12-13T01:51:11.807Z,988.86
2022-12-13T01:52:11.774Z,988.83
2022-12-13T01:53:11.748Z,988.84
2022-12-13T01:54:11.714Z,988.82
2022-12-13T01:55:11.705Z,988.82
2022-12-13T01:56:11.651Z,988.79
2022-12-13T01:57:11.627Z,988.75
2022-12-13T01:58:11.590Z,988.77
2022-12-13T01:59:11.558Z,988.76
2022-12-13T02:00:11.525Z,988.74
2022-12-13T02:01:11.521Z,988.78
2022-12-13T02:02:11.482Z,988.81
2022-12-13T02:03:21.076Z,988.80
2022-12-13T02:04:11.402Z,988.81
2022-12-13T02:05:11.524Z,988.77
2022-12-13T02:06:11.344Z,988.79
2022-12-13T02:07:11.310Z,988.79
2022-12-13T02:08:11.319Z,988.78
2022-12-13T02:09:11.248Z,988.79
2022-12-13T02:10:11.217Z,988.79
2022-12-13T02:11:11.188Z,988.80
2022-12-13T02:12:11.150Z,988.81
2022-12-13T02:13:11.126Z,988.79
2022-12-13T02:14:11.104Z,988.79
2022-12-13T02:15:11.065Z,988.79
2022-12-13T02:16:11.078Z,988.77
2022-12-13T02:17:10.999Z,988.76
2022-12-13T02:18:10.960Z,988.83
2022-12-13T02:19:10.932Z,988.76
2022-12-13T02:20:10.899Z,988.77
2022-12-13T02:21:10.872Z,988.74
2022-12-13T02:22:10.838Z,988.75
2022-12-13T02:23:10.811Z,988.75
2022-12-13T02:24:10.775Z,988.74
2022-12-13T02:25:10.753Z,988.74
2022-12-13T02:26:11.411Z,988.73
2022-12-13T02:27:10.790Z,988.68
2022-12-13T02:28:31.660Z,988.71
2022-12-13T02:29:10.623Z,988.72
2022-12-13T02:30:10.596Z,988.70
2022-12-13T02:31:10.608Z,988.70
2022-12-13T02:32:10.537Z,988.70
2022-12-13T02:33:10.498Z,988.77
2022-12-13T02:34:10.457Z,988.79
2022-12-13T02:35:10.437Z,988.78
2022-12-13T02:36:10.405Z,988.79
2022-12-13T02:37:17.856Z,988.80
2022-12-13T02:38:10.344Z,988.81
2022-12-13T02:39:10.305Z,988.82
2022-12-13T02:40:10.273Z,988.83
2022-12-13T02:41:10.248Z,988.82
2022-12-13T02:42:21.558Z,988.79
2022-12-13T02:43:10.182Z,988.80
2022-12-13T02:44:21.818Z,988.81
2022-12-13T02:45:11.570Z,988.81
2022-12-13T02:46:10.139Z,988.81
2022-12-13T02:47:12.813Z,988.81
2022-12-13T02:48:10.025Z,988.79
2022-12-13T02:49:09.993Z,988.79
2022-12-13T02:50:09.959Z,988.76
2022-12-13T02:51:09.934Z,988.72
2022-12-13T02:52:09.903Z,988.74
2022-12-13T02:53:09.880Z,988.71
2022-12-13T02:54:09.831Z,988.72
2022-12-13T02:55:09.809Z,988.68
2022-12-13T02:56:09.798Z,988.68
2022-12-13T02:57:09.744Z,988.66
2022-12-13T02:58:09.705Z,988.63
2022-12-13T02:59:09.681Z,988.62
2022-12-13T03:00:09.650Z,988.60
2022-12-13T03:01:28.606Z,988.57
2022-12-13T03:02:10.713Z,988.51
2022-12-13T03:03:09.636Z,988.54
2022-12-13T03:04:09.522Z,988.48
2022-12-13T03:05:09.495Z,988.49
2022-12-13T03:06:09.466Z,988.47
2022-12-13T03:07:09.432Z,988.43
2022-12-13T03:08:09.421Z,988.41
2022-12-13T03:09:09.363Z,988.43
2022-12-13T03:10:09.405Z,988.43
2022-12-13T03:11:09.302Z,988.39
2022-12-13T03:12:09.269Z,988.43
2022-12-13T03:13:09.245Z,988.44
2022-12-13T03:14:09.203Z,988.44
2022-12-13T03:15:09.179Z,988.40
2022-12-13T03:16:09.228Z,988.42
2022-12-13T03:17:09.147Z,988.38
2022-12-13T03:18:09.079Z,988.39
2022-12-13T03:19:09.051Z,988.38
2022-12-13T03:20:12.733Z,988.41
2022-12-13T03:21:08.992Z,988.41
2022-12-13T03:22:08.961Z,988.38
2022-12-13T03:23:08.929Z,988.38
2022-12-13T03:24:08.893Z,988.39
2022-12-13T03:25:08.863Z,988.40
2022-12-13T03:26:08.828Z,988.36
2022-12-13T03:27:08.805Z,988.35
2022-12-13T03:28:08.767Z,988.30
2022-12-13T03:29:08.734Z,988.38
2022-12-13T03:30:08.702Z,988.36
2022-12-13T03:31:08.715Z,988.42
2022-12-13T03:32:08.640Z,988.41
2022-12-13T03:33:08.613Z,988.38
2022-12-13T03:34:08.573Z,988.33
2022-12-13T03:35:22.279Z,988.36
2022-12-13T03:36:08.511Z,988.33
2022-12-13T03:37:08.486Z,988.34
2022-12-13T03:38:08.452Z,988.39
2022-12-13T03:39:08.426Z,988.38
2022-12-13T03:40:08.403Z,988.38
2022-12-13T03:41:08.368Z,988.39
2022-12-13T03:42:08.326Z,988.37
2022-12-13T03:43:08.297Z,988.43
2022-12-13T03:44:08.262Z,988.42
2022-12-13T03:45:08.235Z,988.44
2022-12-13T03:46:08.271Z,988.42
2022-12-13T03:47:08.175Z,988.45
2022-12-13T03:48:08.146Z,988.40
2022-12-13T03:49:10.402Z,988.45
2022-12-13T03:50:28.345Z,988.46
2022-12-13T03:51:08.047Z,988.46
2022-12-13T03:52:08.008Z,988.45
2022-12-13T03:53:07.981Z,988.41
2022-12-13T03:54:07.948Z,988.41
2022-12-13T03:55:07.925Z,988.41
2022-12-13T03:56:07.883Z,988.36
2022-12-13T03:57:07.859Z,988.38
2022-12-13T03:58:08.217Z,988.34
2022-12-13T03:59:07.792Z,988.33
2022-12-13T04:00:07.754Z,988.36
2022-12-13T04:01:07.732Z,988.35
2022-12-13T04:02:07.724Z,988.31
2022-12-13T04:03:07.736Z,988.28
2022-12-13T04:04:07.643Z,988.29
2022-12-13T04:05:07.609Z,988.32
2022-12-13T04:06:07.566Z,988.31
2022-12-13T04:07:21.829Z,988.28
2022-12-13T04:08:21.591Z,988.29
2022-12-13T04:09:07.476Z,988.26
2022-12-13T04:10:25.552Z,988.29
2022-12-13T04:11:07.415Z,988.28
2022-12-13T04:12:07.398Z,988.26
2022-12-13T04:13:07.352Z,988.27
2022-12-13T04:14:07.320Z,988.28
2022-12-13T04:15:07.322Z,988.31
2022-12-13T04:16:07.275Z,988.29
2022-12-13T04:17:07.226Z,988.27
2022-12-13T04:18:07.210Z,988.29
2022-12-13T04:19:07.162Z,988.26
2022-12-13T04:20:07.128Z,988.30
2022-12-13T04:21:07.098Z,988.26
2022-12-13T04:22:07.065Z,988.25
2022-12-13T04:23:09.954Z,988.23
2022-12-13T04:24:07.001Z,988.24
2022-12-13T04:25:06.978Z,988.24
2022-12-13T04:26:06.940Z,988.19
2022-12-13T04:27:06.918Z,988.21
2022-12-13T04:28:06.886Z,988.22
2022-12-13T04:29:06.850Z,988.20
2022-12-13T04:30:06.813Z,988.22
2022-12-13T04:31:06.863Z,988.24
2022-12-13T04:32:26.045Z,988.26
2022-12-13T04:33:06.720Z,988.26
2022-12-13T04:34:06.690Z,988.23
2022-12-13T04:35:06.657Z,988.22
2022-12-13T04:36:06.620Z,988.15
2022-12-13T04:37:06.596Z,988.14
2022-12-13T04:38:06.566Z,988.14
2022-12-13T04:39:22.092Z,988.16
2022-12-13T04:40:06.494Z,988.16
2022-12-13T04:41:06.469Z,988.16
2022-12-13T04:42:06.435Z,988.09
2022-12-13T04:43:06.405Z,988.13
2022-12-13T04:44:06.368Z,988.10
2022-12-13T04:45:06.343Z,988.10
2022-12-13T04:46:06.371Z,988.09
2022-12-13T04:47:06.279Z,988.11
2022-12-13T04:48:06.244Z,988.15
2022-12-13T04:49:06.215Z,988.17
2022-12-13T04:50:06.184Z,988.15
2022-12-13T04:51:06.157Z,988.19
2022-12-13T04:52:06.118Z,988.23
2022-12-13T04:53:06.090Z,988.23
2022-12-13T04:54:23.397Z,988.25
2022-12-13T04:55:06.022Z,988.30
2022-12-13T04:56:05.988Z,988.28
2022-12-13T04:57:05.967Z,988.30
2022-12-13T04:58:05.934Z,988.30
2022-12-13T04:59:05.904Z,988.25
2022-12-13T05:00:05.872Z,988.29
2022-12-13T05:01:05.890Z,988.32
2022-12-13T05:02:05.942Z,988.27
2022-12-13T05:03:05.794Z,988.28
2022-12-13T05:04:05.743Z,988.28
2022-12-13T05:05:05.705Z,988.29
2022-12-13T05:06:05.674Z,988.25
2022-12-13T05:07:05.643Z,988.21
2022-12-13T05:08:05.654Z,988.21
2022-12-13T05:09:05.578Z,988.24
2022-12-13T05:10:05.551Z,988.25
2022-12-13T05:11:05.512Z,988.32
2022-12-13T05:12:05.487Z,988.30
2022-12-13T05:13:05.450Z,988.30
2022-12-13T05:14:05.422Z,988.37
2022-12-13T05:15:05.384Z,988.31
2022-12-13T05:16:05.414Z,988.32
2022-12-13T05:17:05.323Z,988.34
2022-12-13T05:18:10.226Z,988.33
2022-12-13T05:19:05.276Z,988.36
2022-12-13T05:20:05.232Z,988.33
2022-12-13T05:21:05.205Z,988.29
2022-12-13T05:22:05.174Z,988.32
2022-12-13T05:23:05.130Z,988.29
2022-12-13T05:24:05.119Z,988.32
2022-12-13T05:25:05.077Z,988.30
2022-12-13T05:26:05.043Z,988.32
2022-12-13T05:27:24.484Z,988.36
2022-12-13T05:28:26.780Z,988.38
2022-12-13T05:29:04.942Z,988.35
2022-12-13T05:30:05.481Z,988.29
2022-12-13T05:31:04.885Z,988.36
2022-12-13T05:32:04.890Z,988.37
2022-12-13T05:33:04.815Z,988.35
2022-12-13T05:34:04.797Z,988.34
2022-12-13T05:35:04.756Z,988.37
2022-12-13T05:36:04.730Z,988.31
2022-12-13T05:37:04.698Z,988.36
2022-12-13T05:38:04.670Z,988.36
2022-12-13T05:39:04.631Z,988.39
2022-12-13T05:40:04.599Z,988.37
2022-12-13T05:41:04.562Z,988.34
2022-12-13T05:42:04.541Z,988.36
2022-12-13T05:43:04.507Z,988.37
2022-12-13T05:44:04.477Z,988.40
2022-12-13T05:45:04.440Z,988.33
2022-12-13T05:46:04.471Z,988.33
2022-12-13T05:47:04.373Z,988.33
2022-12-13T05:48:04.350Z,988.32
2022-12-13T05:49:04.311Z,988.28
2022-12-13T05:50:04.289Z,988.25
2022-12-13T05:51:09.772Z,988.28
2022-12-13T05:52:04.221Z,988.24
2022-12-13T05:53:04.184Z,988.25
2022-12-13T05:54:04.161Z,988.22
2022-12-13T05:55:04.123Z,988.19
2022-12-13T05:56:04.097Z,988.18
2022-12-13T05:57:04.054Z,988.13
2022-12-13T05:58:04.031Z,988.15
2022-12-13T05:59:04.002Z,988.12
2022-12-13T06:00:03.964Z,988.07
2022-12-13T06:01:03.928Z,988.08
2022-12-13T06:02:04.058Z,988.05
2022-12-13T06:03:03.939Z,988.04
2022-12-13T06:04:03.843Z,988.03
2022-12-13T06:05:03.796Z,988.03
2022-12-13T06:06:03.798Z,988.03
2022-12-13T06:07:03.737Z,988.00
2022-12-13T06:08:03.777Z,988.00
2022-12-13T06:09:03.704Z,987.98
2022-12-13T06:10:10.187Z,988.01
2022-12-13T06:11:09.964Z,988.02
2022-12-13T06:12:03.584Z,988.00
2022-12-13T06:13:22.177Z,988.02
2022-12-13T06:14:03.521Z,987.95
2022-12-13T06:15:03.485Z,987.98
2022-12-13T06:16:03.469Z,987.96
2022-12-13T06:17:03.467Z,987.97
2022-12-13T06:18:03.419Z,988.00
2022-12-13T06:19:04.787Z,988.01
2022-12-13T06:20:03.330Z,988.01
2022-12-13T06:21:03.297Z,988.01
2022-12-13T06:22:03.390Z,988.08
2022-12-13T06:23:03.236Z,988.09
2022-12-13T06:24:03.206Z,988.16
2022-12-13T06:25:03.173Z,988.14
2022-12-13T06:26:03.140Z,988.15
2022-12-13T06:27:03.103Z,988.16
2022-12-13T06:28:03.095Z,988.19
2022-12-13T06:29:03.042Z,988.19
2022-12-13T06:30:03.118Z,988.15
2022-12-13T06:31:03.008Z,988.13
2022-12-13T06:32:03.695Z,988.16
2022-12-13T06:33:02.918Z,988.15
2022-12-13T06:34:14.588Z,988.13
2022-12-13T06:35:27.142Z,988.17
2022-12-13T06:36:02.823Z,988.18
2022-12-13T06:37:02.786Z,988.22
2022-12-13T06:38:02.762Z,988.25
2022-12-13T06:39:02.719Z,988.27
2022-12-13T06:40:02.695Z,988.28
2022-12-13T06:41:02.666Z,988.30
2022-12-13T06:42:02.647Z,988.28
2022-12-13T06:43:02.585Z,988.30
2022-12-13T06:44:02.568Z,988.32
2022-12-13T06:45:02.557Z,988.33
2022-12-13T06:46:02.572Z,988.31
2022-12-13T06:47:10.262Z,988.32
2022-12-13T06:48:02.435Z,988.30
2022-12-13T06:49:02.419Z,988.29
2022-12-13T06:50:05.281Z,988.29
2022-12-13T06:51:02.342Z,988.30
2022-12-13T06:52:02.318Z,988.35
2022-12-13T06:53:02.318Z,988.35
2022-12-13T06:54:02.255Z,988.35
2022-12-13T06:55:02.242Z,988.33
2022-12-13T06:56:02.186Z,988.35
2022-12-13T06:57:02.188Z,988.40
2022-12-13T06:58:02.117Z,988.37
2022-12-13T06:59:02.433Z,988.38
2022-12-13T07:00:02.058Z,988.35
2022-12-13T07:01:02.116Z,988.37
2022-12-13T07:02:03.299Z,988.35
2022-12-13T07:03:01.977Z,988.35
2022-12-13T07:04:01.930Z,988.29
2022-12-13T07:05:01.898Z,988.28
2022-12-13T07:06:01.860Z,988.24
2022-12-13T07:07:02.378Z,988.25
2022-12-13T07:08:01.838Z,988.28
2022-12-13T07:09:01.763Z,988.24
2022-12-13T07:10:01.741Z,988.24
2022-12-13T07:11:01.715Z,988.22
2022-12-13T07:12:01.673Z,988.21
2022-12-13T07:13:01.653Z,988.27
2022-12-13T07:14:01.612Z,988.27
2022-12-13T07:15:01.591Z,988.29
2022-12-13T07:16:01.606Z,988.29
2022-12-13T07:17:03.725Z,988.31
2022-12-13T07:18:01.499Z,988.31
2022-12-13T07:19:01.715Z,988.32
2022-12-13T07:20:01.647Z,988.29
2022-12-13T07:21:01.376Z,988.30
2022-12-13T07:22:01.528Z,988.28
2022-12-13T07:23:01.321Z,988.30
2022-12-13T07:24:01.305Z,988.31
2022-12-13T07:25:01.254Z,988.30
2022-12-13T07:26:01.220Z,988.29
2022-12-13T07:27:01.198Z,988.36
2022-12-13T07:28:02.437Z,988.33
2022-12-13T07:29:01.123Z,988.33
2022-12-13T07:30:01.094Z,988.37
2022-12-13T07:31:01.151Z,988.35
2022-12-13T07:32:02.193Z,988.34
2022-12-13T07:33:00.992Z,988.32
2022-12-13T07:34:00.975Z,988.30
2022-12-13T07:35:00.936Z,988.30
2022-12-13T07:36:00.905Z,988.29
2022-12-13T07:37:00.878Z,988.25
2022-12-13T07:38:00.835Z,988.27
2022-12-13T07:39:00.802Z,988.31
2022-12-13T07:40:04.207Z,988.36
2022-12-13T07:41:00.817Z,988.38
2022-12-13T07:42:00.738Z,988.40
2022-12-13T07:43:00.679Z,988.40
2022-12-13T07:44:00.649Z,988.41
2022-12-13T07:45:00.621Z,988.42
2022-12-13T07:46:00.682Z,988.43
2022-12-13T07:47:00.595Z,988.43
2022-12-13T07:48:00.517Z,988.43
2022-12-13T07:49:01.556Z,988.45
2022-12-13T07:50:01.458Z,988.41
2022-12-13T07:51:00.441Z,988.45
2022-12-13T07:52:00.390Z,988.41
2022-12-13T07:53:00.371Z,988.45
2022-12-13T07:54:00.330Z,988.41
2022-12-13T07:55:00.289Z,988.42
2022-12-13T07:56:00.265Z,988.41
2022-12-13T07:57:04.379Z,988.42
2022-12-13T07:58:00.203Z,988.39
2022-12-13T07:59:00.192Z,988.42
2022-12-13T08:00:00.142Z,988.42
2022-12-13T08:01:00.130Z,988.37
2022-12-13T08:02:01.885Z,988.36
2022-12-13T08:03:00.040Z,988.36
2022-12-13T08:04:00.007Z,988.36
2022-12-13T08:05:00.006Z,988.34
2022-12-13T08:06:00.000Z,988.32
2022-12-13T08:06:59.907Z,988.28
2022-12-13T08:07:59.916Z,988.23
2022-12-13T08:08:59.841Z,988.23
2022-12-13T08:09:59.822Z,988.24
2022-12-13T08:11:01.454Z,988.23
2022-12-13T08:11:59.763Z,988.26
2022-12-13T08:12:59.737Z,988.27
2022-12-13T08:13:59.708Z,988.26
2022-12-13T08:14:59.655Z,988.29
2022-12-13T08:15:59.663Z,988.34
2022-12-13T08:16:59.603Z,988.41
2022-12-13T08:17:59.564Z,988.36
2022-12-13T08:19:01.781Z,988.43
2022-12-13T08:19:59.507Z,988.46
2022-12-13T08:20:59.478Z,988.46
2022-12-13T08:22:01.745Z,988.49
2022-12-13T08:23:02.319Z,988.52
2022-12-13T08:23:59.402Z,988.54
2022-12-13T08:24:59.341Z,988.54
2022-12-13T08:25:59.312Z,988.54
2022-12-13T08:26:59.279Z,988.55
2022-12-13T08:28:02.226Z,988.55
2022-12-13T08:28:59.239Z,988.53
2022-12-13T08:29:59.216Z,988.54
2022-12-13T08:30:59.213Z,988.62
2022-12-13T08:32:01.443Z,988.60
2022-12-13T08:32:59.099Z,988.59
2022-12-13T08:33:59.068Z,988.54
2022-12-13T08:34:59.057Z,988.53
2022-12-13T08:35:59.005Z,988.53
2022-12-13T08:37:02.031Z,988.50
2022-12-13T08:37:58.937Z,988.52
2022-12-13T08:38:58.906Z,988.48
2022-12-13T08:39:58.878Z,988.49
2022-12-13T08:40:58.841Z,988.53
2022-12-13T08:41:58.824Z,988.52
2022-12-13T08:42:58.781Z,988.46
2022-12-13T08:43:58.753Z,988.40
2022-12-13T08:44:58.725Z,988.42
2022-12-13T08:46:01.316Z,988.35
2022-12-13T08:46:58.703Z,988.39
2022-12-13T08:47:58.634Z,988.37
2022-12-13T08:48:58.627Z,988.40
2022-12-13T08:50:01.933Z,988.45
2022-12-13T08:50:58.540Z,988.42
2022-12-13T08:51:58.509Z,988.45
2022-12-13T08:52:58.481Z,988.48
2022-12-13T08:54:10.214Z,988.51
2022-12-13T08:54:58.421Z,988.53
2022-12-13T08:55:58.393Z,988.53
2022-12-13T08:56:58.363Z,988.52
2022-12-13T08:57:58.351Z,988.57
2022-12-13T08:58:58.299Z,988.60
2022-12-13T08:59:58.276Z,988.61
2022-12-13T09:00:58.261Z,988.59
2022-12-13T09:02:04.601Z,988.55
2022-12-13T09:02:58.178Z,988.58
2022-12-13T09:03:58.151Z,988.55
2022-12-13T09:04:58.116Z,988.54
2022-12-13T09:05:58.099Z,988.52
2022-12-13T09:06:58.056Z,988.53
2022-12-13T09:07:58.051Z,988.53
2022-12-13T09:08:58.087Z,988.57
2022-12-13T09:09:57.970Z,988.54
2022-12-13T09:10:59.337Z,988.61
2022-12-13T09:11:59.137Z,988.59
2022-12-13T09:13:01.607Z,988.63
2022-12-13T09:14:01.321Z,988.63
2022-12-13T09:15:01.667Z,988.65
2022-12-13T09:16:01.233Z,988.64
2022-12-13T09:17:02.829Z,988.66
2022-12-13T09:17:57.757Z,988.70
2022-12-13T09:18:57.703Z,988.80
2022-12-13T09:19:58.390Z,988.83
2022-12-13T09:21:10.393Z,988.81
2022-12-13T09:22:02.030Z,988.83
2022-12-13T09:23:01.551Z,988.83
2022-12-13T09:24:01.357Z,988.86
2022-12-13T09:24:57.531Z,988.82
2022-12-13T09:26:05.773Z,988.80
2022-12-13T09:26:57.635Z,988.82
2022-12-13T09:27:57.438Z,988.85
2022-12-13T09:28:57.418Z,988.92
2022-12-13T09:29:57.394Z,988.87
2022-12-13T09:30:57.357Z,988.94
2022-12-13T09:31:57.437Z,988.94
2022-12-13T09:32:57.296Z,988.97
2022-12-13T09:33:57.284Z,988.99
2022-12-13T09:34:57.250Z,989.00
2022-12-13T09:35:57.218Z,988.98
2022-12-13T09:37:01.106Z,988.98
2022-12-13T09:37:57.153Z,989.00
2022-12-13T09:38:57.128Z,989.00
2022-12-13T09:39:57.106Z,988.97
2022-12-13T09:40:58.275Z,988.94
2022-12-13T09:42:01.226Z,988.99
2022-12-13T09:43:13.438Z,988.95
2022-12-13T09:44:01.066Z,988.98
2022-12-13T09:45:01.119Z,989.03
2022-12-13T09:46:01.371Z,989.02
2022-12-13T09:47:01.051Z,988.99
2022-12-13T09:48:01.317Z,988.96
2022-12-13T09:49:01.623Z,988.95
2022-12-13T09:49:56.859Z,988.93
2022-12-13T09:51:18.296Z,988.97
2022-12-13T09:52:10.857Z,988.88
2022-12-13T09:53:00.261Z,988.89
2022-12-13T09:53:56.709Z,988.87
2022-12-13T09:54:56.683Z,988.84
2022-12-13T09:56:10.131Z,988.81
2022-12-13T09:56:56.664Z,988.82
2022-12-13T09:57:56.604Z,988.79
2022-12-13T09:58:56.583Z,988.87
2022-12-13T10:00:01.294Z,988.87
2022-12-13T10:00:56.563Z,988.79
2022-12-13T10:01:56.520Z,988.85
2022-12-13T10:02:56.464Z,988.84
2022-12-13T10:03:56.434Z,988.85
2022-12-13T10:05:00.821Z,988.91
2022-12-13T10:05:56.411Z,988.91
2022-12-13T10:06:56.357Z,988.90
2022-12-13T10:07:56.334Z,988.91
2022-12-13T10:08:57.634Z,988.91
2022-12-13T10:09:56.268Z,988.91
2022-12-13T10:10:56.245Z,988.87
2022-12-13T10:11:56.216Z,988.87
2022-12-13T10:12:56.245Z,988.89
2022-12-13T10:13:56.177Z,988.86
2022-12-13T10:14:56.159Z,988.80
2022-12-13T10:15:56.123Z,988.83
2022-12-13T10:16:56.105Z,988.87
2022-12-13T10:17:56.204Z,988.80
2022-12-13T10:18:56.041Z,988.84
2022-12-13T10:19:55.999Z,988.85
2022-12-13T10:20:55.972Z,988.80
2022-12-13T10:21:55.950Z,988.76
2022-12-13T10:23:31.327Z,988.74
2022-12-13T10:24:55.869Z,988.72
2022-12-13T10:26:02.919Z,988.74
2022-12-13T10:26:55.826Z,988.75
2022-12-13T10:27:55.785Z,988.71
2022-12-13T10:28:55.764Z,988.70
2022-12-13T10:29:55.737Z,988.71
2022-12-13T10:30:55.707Z,988.74
2022-12-13T10:31:55.704Z,988.69
2022-12-13T10:32:55.655Z,988.69
2022-12-13T10:33:55.638Z,988.65
2022-12-13T10:34:55.606Z,988.71
2022-12-13T10:35:55.568Z,988.73
2022-12-13T10:36:59.552Z,988.74
2022-12-13T10:37:55.521Z,988.72
2022-12-13T10:38:55.510Z,988.72
2022-12-13T10:39:55.468Z,988.69
2022-12-13T10:40:55.441Z,988.72
2022-12-13T10:41:55.413Z,988.71
2022-12-13T10:42:55.407Z,988.66
2022-12-13T10:43:55.382Z,988.63
2022-12-13T10:44:55.340Z,988.60
2022-12-13T10:45:55.348Z,988.59
2022-12-13T10:46:55.285Z,988.58
2022-12-13T10:47:59.395Z,988.58
2022-12-13T10:48:55.235Z,988.52
2022-12-13T10:49:59.138Z,988.53
2022-12-13T10:50:55.220Z,988.56
2022-12-13T10:51:55.150Z,988.56
2022-12-13T10:52:55.125Z,988.51
2022-12-13T10:53:55.110Z,988.52
2022-12-13T10:54:55.086Z,988.56
2022-12-13T10:55:55.053Z,988.57
2022-12-13T10:56:55.021Z,988.52
2022-12-13T10:57:55.008Z,988.51
2022-12-13T10:58:54.969Z,988.49
2022-12-13T10:59:54.945Z,988.48
2022-12-13T11:00:54.927Z,988.49
2022-12-13T11:01:54.972Z,988.51
2022-12-13T11:02:54.883Z,988.48
2022-12-13T11:03:54.840Z,988.47
2022-12-13T11:04:54.825Z,988.41
2022-12-13T11:05:54.802Z,988.33
2022-12-13T11:06:54.784Z,988.34
2022-12-13T11:07:54.744Z,988.28
2022-12-13T11:08:54.716Z,988.28
2022-12-13T11:09:54.692Z,988.33
2022-12-13T11:10:54.668Z,988.31
2022-12-13T11:11:58.912Z,988.32
2022-12-13T11:12:54.620Z,988.33
2022-12-13T11:13:54.583Z,988.35
2022-12-13T11:14:54.592Z,988.33
2022-12-13T11:15:54.548Z,988.32
2022-12-13T11:16:54.551Z,988.35
2022-12-13T11:17:54.498Z,988.39
2022-12-13T11:18:54.472Z,988.36
2022-12-13T11:19:54.444Z,988.33
2022-12-13T11:20:54.447Z,988.33
2022-12-13T11:21:54.397Z,988.23
2022-12-13T11:22:54.363Z,988.24
2022-12-13T11:23:54.354Z,988.25
2022-12-13T11:24:54.313Z,988.20
2022-12-13T11:25:54.278Z,988.23
2022-12-13T11:26:54.264Z,988.20
2022-12-13T11:27:54.235Z,988.14
2022-12-13T11:28:54.206Z,988.12
2022-12-13T11:29:54.183Z,988.13
2022-12-13T11:30:54.164Z,988.18
2022-12-13T11:31:54.226Z,988.11
2022-12-13T11:32:58.913Z,988.15
2022-12-13T11:33:54.088Z,988.20
2022-12-13T11:34:54.109Z,988.18
2022-12-13T11:35:54.105Z,988.21
2022-12-13T11:36:54.028Z,988.21
2022-12-13T11:37:53.986Z,988.23
2022-12-13T11:38:57.690Z,988.21
2022-12-13T11:39:53.934Z,988.19
2022-12-13T11:40:53.917Z,988.18
2022-12-13T11:41:53.884Z,988.22
2022-12-13T11:42:53.892Z,988.19
2022-12-13T11:43:53.839Z,988.15
2022-12-13T11:44:53.820Z,988.15
2022-12-13T11:45:53.834Z,988.14
2022-12-13T11:46:53.765Z,988.08
2022-12-13T11:47:58.387Z,988.13
2022-12-13T11:48:53.713Z,988.11
2022-12-13T11:49:53.686Z,988.13
2022-12-13T11:50:53.661Z,988.18
2022-12-13T11:51:53.632Z,988.15
2022-12-13T11:52:53.615Z,988.16
2022-12-13T11:53:53.592Z,988.13
2022-12-13T11:54:53.562Z,988.08
2022-12-13T11:55:53.526Z,988.02
2022-12-13T11:57:00.227Z,987.99
2022-12-13T11:57:53.505Z,987.95
2022-12-13T11:59:03.077Z,987.97
2022-12-13T11:59:53.428Z,987.94
2022-12-13T12:00:53.409Z,987.94
2022-12-13T12:01:53.376Z,987.92
2022-12-13T12:02:53.408Z,987.92
2022-12-13T12:03:53.363Z,987.99
2022-12-13T12:04:59.687Z,988.06
2022-12-13T12:05:56.198Z,988.03
2022-12-13T12:06:53.264Z,988.01
2022-12-13T12:08:31.243Z,988.06
2022-12-13T12:08:53.215Z,987.98
2022-12-13T12:09:53.184Z,987.96
2022-12-13T12:10:53.155Z,987.98
2022-12-13T12:11:53.128Z,987.96
2022-12-13T12:12:53.114Z,988.01
2022-12-13T12:13:53.110Z,987.94
2022-12-13T12:14:53.083Z,987.96
2022-12-13T12:15:55.247Z,987.93
2022-12-13T12:16:53.003Z,987.91
2022-12-13T12:17:52.990Z,987.90
2022-12-13T12:18:52.968Z,987.82
2022-12-13T12:19:53.001Z,987.82
2022-12-13T12:20:52.915Z,987.79
2022-12-13T12:22:16.442Z,987.74
2022-12-13T12:22:52.855Z,987.72
2022-12-13T12:23:53.022Z,987.76
2022-12-13T12:24:52.812Z,987.70
2022-12-13T12:25:52.780Z,987.76
2022-12-13T12:26:52.757Z,987.80
2022-12-13T12:27:52.750Z,987.87
2022-12-13T12:28:52.702Z,987.83